createdAt,value
2022-08-27T00:00:15.378Z,100527.78
2022-08-27T00:02:43.699Z,100521.50
2022-08-27T00:05:12.854Z,100522.56
2022-08-27T00:07:39.934Z,100522.50
2022-08-27T00:10:09.114Z,100532.72
2022-08-27T00:12:36.241Z,100525.13
2022-08-27T00:15:04.608Z,100524.03
2022-08-27T00:17:31.136Z,100520.91
2022-08-27T00:19:57.994Z,100511.25
2022-08-27T00:22:24.482Z,100517.06
2022-08-27T00:24:50.977Z,100511.78
2022-08-27T00:27:17.954Z,100506.28
2022-08-27T00:29:44.800Z,100504.81
2022-08-27T00:32:11.320Z,100503.06
2022-08-27T00:34:37.826Z,100501.16
2022-08-27T00:37:06.612Z,100502.16
2022-08-27T00:39:34.019Z,100502.09
2022-08-27T00:42:03.645Z,100508.88
2022-08-27T00:44:31.925Z,100500.78
2022-08-27T00:47:02.722Z,100491.25
2022-08-27T00:49:43.590Z,100495.25
2022-08-27T00:52:22.225Z,100499.75
2022-08-27T00:54:52.203Z,100497.16
2022-08-27T00:57:19.192Z,100506.34
2022-08-27T00:59:46.409Z,100490.69
2022-08-27T01:02:19.133Z,100485.94
2022-08-27T01:04:55.489Z,100495.75
2022-08-27T01:07:31.004Z,100503.25
2022-08-27T01:10:00.276Z,100490.25
2022-08-27T01:12:28.385Z,100486.72
2022-08-27T01:14:56.679Z,100494.44
2022-08-27T01:17:24.788Z,100502.72
2022-08-27T01:19:58.617Z,100504.47
2022-08-27T01:22:43.307Z,100504.63
2022-08-27T01:25:14.323Z,100513.56
2022-08-27T01:27:43.412Z,100507.44
2022-08-27T01:30:12.935Z,100506.47
2022-08-27T01:32:39.983Z,100505.94
2022-08-27T01:35:09.330Z,100500.66
2022-08-27T01:37:36.821Z,100507.13
2022-08-27T01:40:04.775Z,100501.69
2022-08-27T01:42:41.031Z,100501.69
2022-08-27T01:45:14.264Z,100500.44
2022-08-27T01:47:41.008Z,100508.41
2022-08-27T01:50:13.746Z,100507.75
2022-08-27T01:52:40.704Z,100512.59
2022-08-27T01:55:09.608Z,100509.63
2022-08-27T01:57:36.209Z,100515.09
2022-08-27T02:00:14.175Z,100518.41
2022-08-27T02:02:41.152Z,100513.44
2022-08-27T02:05:08.779Z,100507.13
2022-08-27T02:07:36.573Z,100513.44
2022-08-27T02:10:04.763Z,100509.25
2022-08-27T02:12:31.252Z,100508.44
2022-08-27T02:14:57.754Z,100515.97
2022-08-27T02:17:24.298Z,100511.78
2022-08-27T02:19:50.791Z,100527.66
2022-08-27T02:22:17.303Z,100517.19
2022-08-27T02:24:43.766Z,100518.41
2022-08-27T02:27:11.136Z,100517.06
2022-08-27T02:29:37.930Z,100519.41
2022-08-27T02:32:04.477Z,100525.94
2022-08-27T02:34:30.954Z,100516.56
2022-08-27T02:36:57.507Z,100518.00
2022-08-27T02:39:24.018Z,100524.06
2022-08-27T02:41:50.562Z,100523.00
2022-08-27T02:44:17.206Z,100528.06
2022-08-27T02:46:43.748Z,100523.25
2022-08-27T02:49:10.807Z,100523.44
2022-08-27T02:51:37.674Z,100520.94
2022-08-27T02:54:05.552Z,100517.19
2022-08-27T02:56:36.018Z,100517.94
2022-08-27T02:59:02.535Z,100524.03
2022-08-27T03:01:29.166Z,100519.22
2022-08-27T03:03:57.340Z,100518.00
2022-08-27T03:06:23.832Z,100527.19
2022-08-27T03:08:53.146Z,100528.44
2022-08-27T03:11:20.345Z,100529.03
2022-08-27T03:13:46.890Z,100531.16
2022-08-27T03:16:13.477Z,100531.16
2022-08-27T03:18:40.593Z,100536.75
2022-08-27T03:21:08.133Z,100535.47
2022-08-27T03:23:35.379Z,100534.47
2022-08-27T03:26:05.010Z,100531.16
2022-08-27T03:28:34.038Z,100531.00
2022-08-27T03:31:04.592Z,100535.41
2022-08-27T03:33:33.799Z,100526.78
2022-08-27T03:36:00.346Z,100521.25
2022-08-27T03:38:27.286Z,100521.88
2022-08-27T03:40:54.298Z,100520.72
2022-08-27T03:43:22.190Z,100520.88
2022-08-27T03:46:00.560Z,100517.38
2022-08-27T03:48:29.056Z,100508.38
2022-08-27T03:50:55.811Z,100517.88
2022-08-27T03:53:22.344Z,100513.31
2022-08-27T03:55:49.238Z,100513.53
2022-08-27T03:58:16.850Z,100512.16
2022-08-27T04:00:43.430Z,100509.78
2022-08-27T04:03:13.196Z,100508.13
2022-08-27T04:05:40.715Z,100509.38
2022-08-27T04:08:13.240Z,100505.31
2022-08-27T04:10:42.512Z,100507.22
2022-08-27T04:13:09.056Z,100503.88
2022-08-27T04:15:37.825Z,100506.47
2022-08-27T04:18:07.545Z,100506.06
2022-08-27T04:20:35.726Z,100509.00
2022-08-27T04:23:02.676Z,100505.69
2022-08-27T04:25:29.459Z,100499.81
2022-08-27T04:27:55.971Z,100507.34
2022-08-27T04:30:22.473Z,100509.91
2022-08-27T04:32:49.265Z,100513.16
2022-08-27T04:35:16.049Z,100517.34
2022-08-27T04:37:43.172Z,100513.09
2022-08-27T04:40:10.385Z,100522.09
2022-08-27T04:42:36.850Z,100524.31
2022-08-27T04:45:04.360Z,100526.28
2022-08-27T04:47:31.078Z,100532.31
2022-08-27T04:49:57.837Z,100525.19
2022-08-27T04:52:24.938Z,100514.66
2022-08-27T04:54:51.953Z,100528.44
2022-08-27T04:57:18.796Z,100529.47
2022-08-27T04:59:45.516Z,100530.09
2022-08-27T05:02:12.582Z,100530.63
2022-08-27T05:04:40.647Z,100527.13
2022-08-27T05:07:09.267Z,100532.19
2022-08-27T05:09:36.291Z,100534.66
2022-08-27T05:12:03.362Z,100526.59
2022-08-27T05:14:30.406Z,100521.28
2022-08-27T05:16:59.025Z,100527.81
2022-08-27T05:19:25.994Z,100524.47
2022-08-27T05:21:55.661Z,100525.19
2022-08-27T05:24:22.414Z,100526.69
2022-08-27T05:26:49.956Z,100527.97
2022-08-27T05:29:17.123Z,100528.28
2022-08-27T05:31:43.754Z,100535.63
2022-08-27T05:34:16.572Z,100521.88
2022-08-27T05:36:49.243Z,100528.09
2022-08-27T05:39:16.640Z,100523.94
2022-08-27T05:41:43.204Z,100525.59
2022-08-27T05:44:37.264Z,100535.59
2022-08-27T05:46:57.338Z,100529.00
2022-08-27T05:49:23.809Z,100524.38
2022-08-27T05:51:50.289Z,100526.84
2022-08-27T05:54:19.178Z,100531.91
2022-08-27T05:56:46.524Z,100531.47
2022-08-27T05:59:31.799Z,100530.25
2022-08-27T06:02:01.453Z,100523.63
2022-08-27T06:04:28.105Z,100532.91
2022-08-27T06:06:54.688Z,100530.09
2022-08-27T06:09:25.448Z,100534.28
2022-08-27T06:11:56.402Z,100530.47
2022-08-27T06:14:23.247Z,100539.34
2022-08-27T06:16:50.011Z,100534.03
2022-08-27T06:19:16.728Z,100540.09
2022-08-27T06:21:43.814Z,100542.19
2022-08-27T06:24:14.875Z,100541.81
2022-08-27T06:26:44.475Z,100536.75
2022-08-27T06:29:12.825Z,100542.63
2022-08-27T06:31:40.396Z,100539.84
2022-08-27T06:34:09.970Z,100545.75
2022-08-27T06:36:39.429Z,100540.31
2022-08-27T06:39:07.348Z,100553.53
2022-08-27T06:41:35.105Z,100546.19
2022-08-27T06:44:01.586Z,100556.03
2022-08-27T06:46:29.444Z,100555.81
2022-08-27T06:48:58.883Z,100558.75
2022-08-27T06:51:31.422Z,100556.31
2022-08-27T06:54:01.090Z,100563.66
2022-08-27T06:56:28.581Z,100571.13
2022-08-27T06:58:57.361Z,100570.75
2022-08-27T07:01:36.613Z,100566.53
2022-08-27T07:04:07.128Z,100567.75
2022-08-27T07:06:35.885Z,100578.25
2022-08-27T07:09:02.725Z,100571.84
2022-08-27T07:11:31.941Z,100574.34
2022-08-27T07:13:59.081Z,100580.09
2022-08-27T07:16:27.217Z,100574.66
2022-08-27T07:18:56.808Z,100579.22
2022-08-27T07:21:28.524Z,100583.25
2022-08-27T07:23:58.889Z,100584.09
2022-08-27T07:26:26.636Z,100577.59
2022-08-27T07:28:53.503Z,100587.84
2022-08-27T07:31:22.792Z,100584.53
2022-08-27T07:33:52.548Z,100589.16
2022-08-27T07:36:22.952Z,100591.63
2022-08-27T07:39:00.866Z,100594.97
2022-08-27T07:41:31.330Z,100591.03
2022-08-27T07:44:18.737Z,100588.78
2022-08-27T07:46:48.773Z,100583.47
2022-08-27T07:49:17.210Z,100583.91
2022-08-27T07:51:43.733Z,100586.00
2022-08-27T07:54:10.716Z,100583.50
2022-08-27T07:56:37.184Z,100581.38
2022-08-27T07:59:03.911Z,100580.69
2022-08-27T08:01:30.447Z,100585.16
2022-08-27T08:03:57.095Z,100588.78
2022-08-27T08:06:23.634Z,100583.66
2022-08-27T08:08:50.227Z,100583.94
2022-08-27T08:11:18.273Z,100588.50
2022-08-27T08:13:46.117Z,100593.19
2022-08-27T08:16:13.843Z,100596.97
2022-08-27T08:18:40.892Z,100584.69
2022-08-27T08:21:11.236Z,100587.75
2022-08-27T08:23:38.369Z,100592.88
2022-08-27T08:26:05.658Z,100595.00
2022-08-27T08:28:32.877Z,100591.13
2022-08-27T08:31:00.091Z,100591.97
2022-08-27T08:33:27.830Z,100590.22
2022-08-27T08:35:54.738Z,100590.34
2022-08-27T08:38:21.841Z,100586.78
2022-08-27T08:40:54.518Z,100587.13
2022-08-27T08:43:33.107Z,100582.00
2022-08-27T08:46:09.795Z,100581.69
2022-08-27T08:48:40.521Z,100562.13
2022-08-27T08:51:21.610Z,100567.88
2022-08-27T08:54:04.624Z,100558.44
2022-08-27T08:56:37.006Z,100554.38
2022-08-27T08:59:05.942Z,100561.31
2022-08-27T09:01:32.467Z,100563.88
2022-08-27T09:04:05.176Z,100566.94
2022-08-27T09:06:53.062Z,100576.59
2022-08-27T09:09:28.006Z,100576.63
2022-08-27T09:12:19.118Z,100573.09
2022-08-27T09:15:04.111Z,100571.69
2022-08-27T09:17:32.522Z,100570.53
2022-08-27T09:19:59.419Z,100564.16
2022-08-27T09:22:50.167Z,100558.72
2022-08-27T09:25:26.642Z,100552.72
2022-08-27T09:27:56.673Z,100555.47
2022-08-27T09:30:30.513Z,100552.50
2022-08-27T09:33:01.121Z,100560.34
2022-08-27T09:35:44.726Z,100546.06
2022-08-27T09:38:14.068Z,100540.41
2022-08-27T09:40:49.115Z,100544.44
2022-08-27T09:43:15.584Z,100551.22
2022-08-27T09:45:49.552Z,100555.47
2022-08-27T09:48:31.080Z,100560.25
2022-08-27T09:51:02.399Z,100573.75
2022-08-27T09:53:51.643Z,100572.56
2022-08-27T09:56:38.013Z,100573.53
2022-08-27T09:59:10.761Z,100572.56
2022-08-27T10:01:53.873Z,100589.31
2022-08-27T10:04:51.342Z,100590.72
2022-08-27T10:07:37.179Z,100602.41
2022-08-27T10:10:13.122Z,100602.66
2022-08-27T10:13:19.784Z,100590.50
2022-08-27T10:16:06.850Z,100598.25
2022-08-27T10:18:54.633Z,100604.19
2022-08-27T10:21:27.235Z,100595.41
2022-08-27T10:24:13.213Z,100596.25
2022-08-27T10:26:54.887Z,100601.53
2022-08-27T10:29:55.134Z,100602.44
2022-08-27T10:32:31.196Z,100610.97
2022-08-27T10:35:18.110Z,100609.66
2022-08-27T10:38:05.981Z,100613.16
2022-08-27T10:40:38.609Z,100608.31
2022-08-27T10:43:37.316Z,100610.31
2022-08-27T10:46:10.916Z,100609.59
2022-08-27T10:48:42.706Z,100602.56
2022-08-27T10:51:33.735Z,100605.91
2022-08-27T10:54:07.511Z,100610.69
2022-08-27T10:57:03.651Z,100613.03
2022-08-27T10:59:45.117Z,100613.03
2022-08-27T11:02:20.599Z,100609.72
2022-08-27T11:04:52.851Z,100613.50
2022-08-27T11:07:27.038Z,100614.81
2022-08-27T11:10:02.039Z,100605.66
2022-08-27T11:12:36.358Z,100605.91
2022-08-27T11:15:12.745Z,100610.56
2022-08-27T11:17:42.511Z,100606.56
2022-08-27T11:20:27.147Z,100612.75
2022-08-27T11:23:12.111Z,100609.91
2022-08-27T11:26:02.408Z,100606.25
2022-08-27T11:28:41.907Z,100603.06
2022-08-27T11:31:31.513Z,100609.03
2022-08-27T11:34:07.902Z,100610.94
2022-08-27T11:37:12.699Z,100614.34
2022-08-27T11:39:52.064Z,100609.25
2022-08-27T11:42:37.076Z,100614.03
2022-08-27T11:45:08.663Z,100611.28
2022-08-27T11:47:35.571Z,100621.47
2022-08-27T11:50:16.021Z,100614.09
2022-08-27T11:52:59.426Z,100610.69
2022-08-27T11:55:31.939Z,100615.78
2022-08-27T11:58:27.556Z,100613.91
2022-08-27T12:00:54.445Z,100612.47
2022-08-27T12:03:31.475Z,100608.03
2022-08-27T12:05:58.905Z,100603.53
2022-08-27T12:08:31.555Z,100611.78
2022-08-27T12:11:19.734Z,100605.81
2022-08-27T12:14:12.307Z,100610.44
2022-08-27T12:16:46.139Z,100610.22
2022-08-27T12:19:23.395Z,100606.50
2022-08-27T12:22:05.085Z,100605.31
2022-08-27T12:24:34.246Z,100599.50
2022-08-27T12:27:15.516Z,100594.28
2022-08-27T12:29:57.164Z,100594.72
2022-08-27T12:32:28.685Z,100592.69
2022-08-27T12:35:21.415Z,100593.25
2022-08-27T12:38:03.876Z,100599.13
2022-08-27T12:40:46.508Z,100596.44
2022-08-27T12:43:17.970Z,100591.78
2022-08-27T12:45:49.605Z,100597.91
2022-08-27T12:48:23.973Z,100599.06
2022-08-27T12:50:53.461Z,100586.47
2022-08-27T12:53:43.610Z,100591.84
2022-08-27T12:56:45.359Z,100588.44
2022-08-27T12:59:17.634Z,100580.28
2022-08-27T13:02:10.084Z,100578.63
2022-08-27T13:04:41.008Z,100583.16
2022-08-27T13:07:07.616Z,100574.34
2022-08-27T13:09:37.456Z,100573.28
2022-08-27T13:12:14.606Z,100574.69
2022-08-27T13:14:41.385Z,100567.75
2022-08-27T13:17:17.750Z,100573.91
2022-08-27T13:19:51.188Z,100578.09
2022-08-27T13:22:31.814Z,100572.25
2022-08-27T13:25:02.383Z,100578.72
2022-08-27T13:27:32.604Z,100575.22
2022-08-27T13:30:07.450Z,100576.59
2022-08-27T13:32:34.615Z,100570.03
2022-08-27T13:35:01.900Z,100577.47
2022-08-27T13:37:34.740Z,100571.94
2022-08-27T13:40:01.380Z,100564.34
2022-08-27T13:42:28.442Z,100570.69
2022-08-27T13:45:02.835Z,100568.47
2022-08-27T13:47:30.711Z,100567.38
2022-08-27T13:50:07.655Z,100565.81
2022-08-27T13:52:36.246Z,100568.91
2022-08-27T13:55:09.859Z,100571.94
2022-08-27T13:57:48.937Z,100570.69
2022-08-27T14:00:20.566Z,100564.41
2022-08-27T14:02:54.115Z,100569.16
2022-08-27T14:05:25.434Z,100573.38
2022-08-27T14:08:01.906Z,100564.25
2022-08-27T14:10:41.359Z,100577.31
2022-08-27T14:13:11.413Z,100573.78
2022-08-27T14:15:42.949Z,100567.38
2022-08-27T14:18:47.966Z,100574.59
2022-08-27T14:21:15.227Z,100579.56
2022-08-27T14:23:41.701Z,100570.69
2022-08-27T14:26:08.521Z,100573.53
2022-08-27T14:28:35.541Z,100573.13
2022-08-27T14:31:02.136Z,100577.75
2022-08-27T14:33:28.883Z,100576.25
2022-08-27T14:35:55.478Z,100577.22
2022-08-27T14:38:23.789Z,100568.50
2022-08-27T14:40:53.640Z,100575.75
2022-08-27T14:43:23.048Z,100571.03
2022-08-27T14:45:51.728Z,100569.03
2022-08-27T14:48:25.942Z,100574.78
2022-08-27T14:50:55.392Z,100572.47
2022-08-27T14:53:22.008Z,100573.88
2022-08-27T14:55:51.654Z,100573.75
2022-08-27T14:58:19.080Z,100572.53
2022-08-27T15:00:45.682Z,100571.22
2022-08-27T15:03:12.993Z,100567.19
2022-08-27T15:05:39.554Z,100570.66
2022-08-27T15:08:07.539Z,100574.81
2022-08-27T15:10:36.065Z,100577.56
2022-08-27T15:13:02.576Z,100576.38
2022-08-27T15:15:29.091Z,100583.72
2022-08-27T15:17:55.589Z,100593.69
2022-08-27T15:20:22.132Z,100590.97
2022-08-27T15:22:52.044Z,100584.56
2022-08-27T15:25:19.808Z,100594.66
2022-08-27T15:27:46.304Z,100591.22
2022-08-27T15:30:15.495Z,100595.03
2022-08-27T15:32:47.914Z,100593.13
2022-08-27T15:35:18.706Z,100595.41
2022-08-27T15:37:45.770Z,100587.78
2022-08-27T15:40:14.556Z,100600.09
2022-08-27T15:42:41.346Z,100585.53
2022-08-27T15:45:08.895Z,100589.94
2022-08-27T15:47:35.474Z,100597.28
2022-08-27T15:50:01.966Z,100595.28
2022-08-27T15:52:36.338Z,100590.06
2022-08-27T15:55:15.498Z,100591.47
2022-08-27T15:57:41.983Z,100590.72
2022-08-27T16:00:09.167Z,100587.78
2022-08-27T16:02:35.933Z,100578.50
2022-08-27T16:05:02.641Z,100586.34
2022-08-27T16:07:29.224Z,100585.00
2022-08-27T16:09:55.766Z,100599.16
2022-08-27T16:12:27.107Z,100589.91
2022-08-27T16:14:55.094Z,100598.00
2022-08-27T16:17:21.930Z,100600.72
2022-08-27T16:19:49.351Z,100602.25
2022-08-27T16:22:16.305Z,100604.03
2022-08-27T16:24:43.336Z,100612.47
2022-08-27T16:27:10.213Z,100610.88
2022-08-27T16:29:37.031Z,100603.66
2022-08-27T16:32:04.277Z,100618.00
2022-08-27T16:34:31.033Z,100611.84
2022-08-27T16:36:57.631Z,100607.69
2022-08-27T16:39:24.104Z,100608.06
2022-08-27T16:41:50.636Z,100614.13
2022-08-27T16:44:17.632Z,100610.16
2022-08-27T16:46:44.253Z,100612.53
2022-08-27T16:49:29.107Z,100620.25
2022-08-27T16:51:55.744Z,100621.69
2022-08-27T16:54:22.477Z,100625.91
2022-08-27T16:56:49.686Z,100626.53
2022-08-27T16:59:16.703Z,100630.31
2022-08-27T17:01:43.522Z,100625.34
2022-08-27T17:04:21.354Z,100629.97
2022-08-27T17:06:51.683Z,100634.22
2022-08-27T17:09:19.085Z,100640.88
2022-08-27T17:11:50.478Z,100638.78
2022-08-27T17:14:16.954Z,100634.91
2022-08-27T17:16:43.906Z,100650.69
2022-08-27T17:19:16.759Z,100649.66
2022-08-27T17:21:45.249Z,100641.69
2022-08-27T17:24:12.479Z,100636.16
2022-08-27T17:26:39.300Z,100646.47
2022-08-27T17:29:05.943Z,100657.41
2022-08-27T17:31:36.860Z,100653.44
2022-08-27T17:34:05.717Z,100659.78
2022-08-27T17:36:33.339Z,100664.69
2022-08-27T17:39:00.195Z,100667.13
2022-08-27T17:41:33.650Z,100661.16
2022-08-27T17:44:15.999Z,100672.41
2022-08-27T17:46:42.372Z,100682.81
2022-08-27T17:49:09.472Z,100682.38
2022-08-27T17:51:36.041Z,100680.59
2022-08-27T17:54:03.321Z,100685.84
2022-08-27T17:56:29.986Z,100683.28
2022-08-27T17:58:56.772Z,100685.53
2022-08-27T18:01:31.585Z,100688.06
2022-08-27T18:03:58.727Z,100683.44
2022-08-27T18:06:27.875Z,100690.00
2022-08-27T18:08:54.584Z,100695.91
2022-08-27T18:11:21.379Z,100696.47
2022-08-27T18:13:54.031Z,100696.16
2022-08-27T18:16:21.800Z,100705.09
2022-08-27T18:18:48.528Z,100697.69
2022-08-27T18:21:24.935Z,100705.91
2022-08-27T18:23:52.765Z,100715.22
2022-08-27T18:26:21.498Z,100715.84
2022-08-27T18:28:48.999Z,100712.44
2022-08-27T18:31:18.408Z,100714.94
2022-08-27T18:33:45.139Z,100717.78
2022-08-27T18:36:11.892Z,100718.78
2022-08-27T18:38:38.423Z,100717.50
2022-08-27T18:41:06.238Z,100720.91
2022-08-27T18:43:35.221Z,100723.41
2022-08-27T18:46:03.418Z,100729.34
2022-08-27T18:48:30.105Z,100731.44
2022-08-27T18:50:59.302Z,100726.06
2022-08-27T18:53:28.843Z,100725.28
2022-08-27T18:55:55.554Z,100726.88
2022-08-27T18:58:22.448Z,100731.88
2022-08-27T19:00:53.430Z,100737.53
2022-08-27T19:03:25.197Z,100737.78
2022-08-27T19:05:55.047Z,100723.19
2022-08-27T19:08:23.992Z,100729.22
2022-08-27T19:10:50.965Z,100733.78
2022-08-27T19:13:17.830Z,100730.22
2022-08-27T19:15:50.896Z,100734.91
2022-08-27T19:18:18.557Z,100737.63
2022-08-27T19:20:45.083Z,100734.97
2022-08-27T19:23:11.726Z,100734.06
2022-08-27T19:25:38.406Z,100739.66
2022-08-27T19:28:05.006Z,100738.88
2022-08-27T19:30:32.808Z,100736.19
2022-08-27T19:32:59.343Z,100737.78
2022-08-27T19:35:25.872Z,100734.34
2022-08-27T19:37:53.471Z,100736.69
2022-08-27T19:40:21.994Z,100742.06
2022-08-27T19:42:49.454Z,100743.81
2022-08-27T19:45:16.263Z,100748.63
2022-08-27T19:47:50.348Z,100753.25
2022-08-27T19:50:17.471Z,100758.25
2022-08-27T19:52:44.168Z,100758.88
2022-08-27T19:55:13.917Z,100752.19
2022-08-27T19:57:41.535Z,100750.53
2022-08-27T20:00:09.597Z,100758.56
2022-08-27T20:02:36.200Z,100756.03
2022-08-27T20:05:17.382Z,100766.88
2022-08-27T20:07:45.919Z,100764.34
2022-08-27T20:10:12.510Z,100769.78
2022-08-27T20:12:39.059Z,100771.09
2022-08-27T20:15:06.772Z,100765.66
2022-08-27T20:17:34.979Z,100770.03
2022-08-27T20:20:01.810Z,100775.38
2022-08-27T20:22:28.296Z,100774.09
2022-08-27T20:24:54.872Z,100777.38
2022-08-27T20:27:21.468Z,100773.19
2022-08-27T20:29:48.641Z,100768.13
2022-08-27T20:32:15.301Z,100772.91
2022-08-27T20:34:42.017Z,100770.38
2022-08-27T20:37:08.687Z,100778.66
2022-08-27T20:39:35.382Z,100779.41
2022-08-27T20:42:01.961Z,100777.59
2022-08-27T20:44:29.175Z,100775.47
2022-08-27T20:46:59.762Z,100767.31
2022-08-27T20:49:27.911Z,100772.91
2022-08-27T20:52:03.236Z,100779.47
2022-08-27T20:54:31.554Z,100774.03
2022-08-27T20:56:58.605Z,100771.38
2022-08-27T20:59:43.926Z,100776.81
2022-08-27T21:02:14.113Z,100787.25
2022-08-27T21:04:46.447Z,100788.75
2022-08-27T21:07:14.131Z,100785.63
2022-08-27T21:09:56.431Z,100788.53
2022-08-27T21:12:28.420Z,100787.09
2022-08-27T21:14:55.851Z,100786.66
2022-08-27T21:17:29.497Z,100782.03
2022-08-27T21:19:56.478Z,100784.19
2022-08-27T21:22:23.812Z,100780.88
2022-08-27T21:24:50.351Z,100780.13
2022-08-27T21:27:18.338Z,100778.81
2022-08-27T21:29:45.204Z,100775.28
2022-08-27T21:32:12.604Z,100782.38
2022-08-27T21:34:39.677Z,100779.25
2022-08-27T21:37:06.162Z,100773.97
2022-08-27T21:39:34.167Z,100777.28
2022-08-27T21:42:01.680Z,100780.44
2022-08-27T21:44:30.409Z,100780.00
2022-08-27T21:46:57.771Z,100781.84
2022-08-27T21:49:24.306Z,100772.47
2022-08-27T21:51:50.881Z,100773.28
2022-08-27T21:54:17.550Z,100776.25
2022-08-27T21:56:44.540Z,100779.25
2022-08-27T21:59:11.121Z,100777.13
2022-08-27T22:01:37.718Z,100775.84
2022-08-27T22:04:04.221Z,100777.34
2022-08-27T22:06:30.733Z,100778.84
2022-08-27T22:08:57.228Z,100780.56
2022-08-27T22:11:24.542Z,100781.19
2022-08-27T22:13:51.952Z,100783.28
2022-08-27T22:16:19.298Z,100778.94
2022-08-27T22:18:45.825Z,100782.31
2022-08-27T22:21:12.492Z,100787.34
2022-08-27T22:23:39.004Z,100778.09
2022-08-27T22:26:09.696Z,100780.19
2022-08-27T22:28:36.202Z,100781.50
2022-08-27T22:31:02.744Z,100775.03
2022-08-27T22:33:29.290Z,100780.88
2022-08-27T22:35:55.867Z,100778.19
2022-08-27T22:38:22.358Z,100768.91
2022-08-27T22:40:50.124Z,100773.31
2022-08-27T22:43:17.016Z,100771.88
2022-08-27T22:45:43.495Z,100773.53
2022-08-27T22:48:10.171Z,100774.41
2022-08-27T22:50:36.764Z,100776.72
2022-08-27T22:53:03.426Z,100775.03
2022-08-27T22:55:29.954Z,100773.78
2022-08-27T22:57:56.532Z,100765.63
2022-08-27T23:00:26.990Z,100767.28
2022-08-27T23:02:54.089Z,100769.63
2022-08-27T23:05:21.455Z,100769.81
2022-08-27T23:07:48.378Z,100770.88
2022-08-27T23:10:18.315Z,100769.66
2022-08-27T23:12:46.510Z,100773.63
2022-08-27T23:15:15.611Z,100774.88
2022-08-27T23:17:42.144Z,100777.00
2022-08-27T23:20:10.917Z,100775.78
2022-08-27T23:22:38.787Z,100774.94
2022-08-27T23:25:26.185Z,100768.25
2022-08-27T23:27:53.681Z,100764.69
2022-08-27T23:30:21.466Z,100764.09
2022-08-27T23:32:53.762Z,100766.63
2022-08-27T23:35:22.544Z,100772.88
2022-08-27T23:37:50.026Z,100762.44
2022-08-27T23:40:17.800Z,100767.66
2022-08-27T23:42:45.261Z,100773.53
2022-08-27T23:45:15.210Z,100772.91
2022-08-27T23:47:41.681Z,100777.94
2022-08-27T23:50:09.545Z,100782.53
2022-08-27T23:52:37.212Z,100779.59
2022-08-27T23:55:05.154Z,100777.53
2022-08-27T23:57:31.658Z,100787.78
2022-08-27T23:59:58.152Z,100787.38
